»·PEaware :: WAT169 KSNA-KLAS

WAT169 :: KSNA-KLAS

FLIGHT INFORMATION

Flight Status: Arrived
Operator:
Walker Air Transport
More flights by this operator :: More flights under this callsign
Pilot: Marty P. (27464)
Aircraft: BOEING 737-800
(B738)
More flights by this aircraft type
Origin: KSNA John Wayne-Orange Co
United States
Destination: KLAS McCarran Intl
United States
More flights between these airports :: More routes between these airports
Route: FINZZ3 MISEN KEPEC6
File this flight plan on PilotEdge
Remarks:
Altitude:
(Current/Filed)
27,000ft
Speed:
(Current/Filed)
480kts
Departed: 18-Oct-20 09:16 PM
Arrived: 18-Oct-20 10:01 PM
Distance/Time
Traveled:
197nm/0:45
Distance/Time
To Go:
Arrived

Flight Plot

Page will automatically refresh every two minutes.

Flight plan parsing failed; only flown route is shown


Map Options




Map Legend


Flown Route
Filed Route
Departure Airport
Arrival Airport
Navaid (VOR, NDB)
Fix

Horizontal Profiles

Position Reports

Time Latitude Longitude Heading Altitude Ground
Speed
18-Oct-20 21:02 33.675005 -117.865072 118 67ft 0kts
18-Oct-20 21:03 33.675005 -117.865072 118 66ft 0kts
18-Oct-20 21:04 33.675005 -117.865072 118 66ft 0kts
18-Oct-20 21:05 33.675005 -117.865072 118 66ft 0kts
18-Oct-20 21:06 33.675005 -117.865072 118 66ft 0kts
18-Oct-20 21:07 33.675005 -117.865072 118 66ft 0kts
18-Oct-20 21:08 33.675005 -117.865072 118 66ft 0kts
18-Oct-20 21:09 33.675005 -117.865073 118 66ft 0kts
18-Oct-20 21:10 33.675164 -117.865579 82 66ft 2kts
18-Oct-20 21:11 33.674922 -117.865964 27 66ft 0kts
18-Oct-20 21:12 33.674922 -117.865964 27 66ft 0kts
18-Oct-20 21:12 33.675689 -117.865470 27 66ft 16kts
18-Oct-20 21:14 33.680032 -117.862737 17 66ft 8kts
18-Oct-20 21:14 33.681158 -117.864213 297 66ft 0kts
18-Oct-20 21:16 33.662229 -117.877508 209 574ft 162kts
18-Oct-20 21:16 33.620355 -117.893265 186 2293ft 228kts
18-Oct-20 21:17 33.556332 -117.916331 219 5019ft 262kts
18-Oct-20 21:18 33.510395 -117.979044 252 5757ft 261kts
18-Oct-20 21:19 33.522082 -118.056813 309 10032ft 254kts
18-Oct-20 21:20 33.591597 -118.105539 351 11655ft 346kts
18-Oct-20 21:21 33.686753 -118.073368 24 14832ft 372kts
18-Oct-20 21:22 33.781315 -118.017954 24 17706ft 387kts
18-Oct-20 21:23 33.879615 -117.959734 28 20155ft 403kts
18-Oct-20 21:24 33.973621 -117.881558 35 22327ft 419kts
18-Oct-20 21:25 34.066642 -117.792965 42 24260ft 433kts
18-Oct-20 21:26 34.149567 -117.683960 48 25937ft 448kts
18-Oct-20 21:27 34.230779 -117.566631 49 27105ft 470kts
18-Oct-20 21:28 34.317364 -117.438627 49 27109ft 512kts
18-Oct-20 21:29 34.409539 -117.300714 50 27108ft 537kts
18-Oct-20 21:30 34.504371 -117.158474 50 27109ft 548kts
18-Oct-20 21:31 34.600843 -117.015617 48 27125ft 532kts
18-Oct-20 21:32 34.688811 -116.887464 48 26698ft 478kts
18-Oct-20 21:33 34.776492 -116.759400 48 26054ft 502kts
18-Oct-20 21:34 34.868916 -116.635123 41 25397ft 490kts
18-Oct-20 21:35 34.973266 -116.529806 36 24743ft 484kts
18-Oct-20 21:36 35.077623 -116.428263 37 24093ft 476kts
18-Oct-20 21:37 35.171527 -116.316803 44 22627ft 467kts
18-Oct-20 21:38 35.260900 -116.205223 44 20629ft 455kts
18-Oct-20 21:39 35.346585 -116.097667 44 19016ft 437kts
18-Oct-20 21:40 35.428422 -115.994367 43 17402ft 401kts
18-Oct-20 21:41 35.502096 -115.901066 43 16015ft 362kts
18-Oct-20 21:42 35.568890 -115.816248 43 14812ft 332kts
18-Oct-20 21:43 35.630520 -115.737788 42 13717ft 308kts
18-Oct-20 21:44 35.689343 -115.662638 42 13014ft 301kts
18-Oct-20 21:45 35.750518 -115.592792 26 13018ft 297kts
18-Oct-20 21:46 35.828901 -115.571051 0 13019ft 292kts
18-Oct-20 21:47 35.910464 -115.566984 0 13003ft 298kts
18-Oct-20 21:48 35.982401 -115.523322 54 12117ft 301kts
18-Oct-20 21:49 36.013871 -115.430069 65 11211ft 282kts
18-Oct-20 21:50 36.028587 -115.336810 92 10429ft 281kts
18-Oct-20 21:51 36.021443 -115.241557 94 9361ft 274kts
18-Oct-20 21:52 36.014847 -115.147892 94 8131ft 275kts
18-Oct-20 21:53 36.008796 -115.056412 94 6656ft 246kts
18-Oct-20 21:54 36.004033 -114.975345 94 5143ft 233kts
18-Oct-20 21:55 36.037353 -114.926279 349 4981ft 219kts
18-Oct-20 21:56 36.080399 -114.965222 292 4696ft 202kts
18-Oct-20 21:57 36.077593 -115.028981 246 3685ft 174kts
18-Oct-20 21:58 36.073653 -115.082882 268 2776ft 155kts
18-Oct-20 21:59 36.073635 -115.135139 269 2073ft 120kts
18-Oct-20 22:00 36.076723 -115.146551 359 2103ft 24kts
18-Oct-20 22:01 36.079557 -115.146684 28 2098ft 0kts

Navigation Log

Ident Type
Flight plan parsing failed, navigation log unavailable